createdAt,value
2022-10-26T00:02:14.377Z,22.07
2022-10-26T00:04:59.600Z,27.03
2022-10-26T00:07:44.472Z,21.83
2022-10-26T00:10:31.607Z,21.53
2022-10-26T00:13:16.850Z,23.57
2022-10-26T00:16:02.150Z,22.87
2022-10-26T00:18:47.776Z,20.17
2022-10-26T00:21:32.958Z,22.13
2022-10-26T00:27:02.667Z,22.17
2022-10-26T00:29:47.579Z,23.43
2022-10-26T00:32:33.132Z,18.90
2022-10-26T00:35:23.262Z,19.67
2022-10-26T00:38:14.084Z,20.63
2022-10-26T00:40:59.506Z,20.77
2022-10-26T00:43:45.333Z,21.33
2022-10-26T00:46:37.458Z,19.20
2022-10-26T00:49:22.363Z,18.97
2022-10-26T00:52:09.037Z,17.73
2022-10-26T00:54:54.085Z,19.13
2022-10-26T00:57:39.796Z,18.93
2022-10-26T01:00:24.810Z,16.47
2022-10-26T01:03:11.217Z,18.67
2022-10-26T01:05:58.768Z,19.03
2022-10-26T01:08:44.001Z,20.47
2022-10-26T01:11:29.105Z,19.83
2022-10-26T01:14:17.655Z,18.13
2022-10-26T01:17:11.762Z,17.27
2022-10-26T01:19:59.798Z,15.93
2022-10-26T01:23:02.237Z,18.87
2022-10-26T01:25:53.297Z,15.43
2022-10-26T01:28:48.473Z,19.43
2022-10-26T01:31:42.816Z,16.77
2022-10-26T01:34:42.871Z,17.37
2022-10-26T01:37:35.671Z,18.03
2022-10-26T01:40:31.090Z,16.83
2022-10-26T01:43:17.137Z,18.63
2022-10-26T01:46:06.170Z,21.67
2022-10-26T01:48:56.993Z,15.70
2022-10-26T01:51:44.102Z,15.40
2022-10-26T01:54:29.414Z,16.80
2022-10-26T01:57:19.077Z,16.53
2022-10-26T02:00:08.499Z,15.43
2022-10-26T02:02:56.249Z,19.90
2022-10-26T02:06:06.674Z,17.17
2022-10-26T02:09:08.806Z,17.73
2022-10-26T02:11:55.493Z,18.60
2022-10-26T02:14:51.025Z,17.30
2022-10-26T02:17:53.709Z,13.83
2022-10-26T02:20:46.802Z,21.67
2022-10-26T02:23:35.071Z,18.53
2022-10-26T02:26:24.242Z,15.73
2022-10-26T02:29:13.897Z,18.33
2022-10-26T02:32:01.312Z,15.77
2022-10-26T02:34:48.929Z,17.70
2022-10-26T02:37:36.426Z,16.60
2022-10-26T02:40:26.063Z,17.50
2022-10-26T02:43:15.066Z,16.17
2022-10-26T02:46:05.777Z,22.50
2022-10-26T02:48:50.516Z,18.20
2022-10-26T02:51:54.014Z,17.53
2022-10-26T02:54:51.156Z,20.00
2022-10-26T02:57:38.923Z,22.10
2022-10-26T03:00:24.449Z,22.97
2022-10-26T03:03:09.821Z,18.30
2022-10-26T03:05:54.897Z,19.23
2022-10-26T03:08:39.863Z,19.57
2022-10-26T03:11:24.794Z,17.97
2022-10-26T03:14:10.220Z,17.90
2022-10-26T03:16:55.828Z,23.30
2022-10-26T03:19:40.805Z,19.40
2022-10-26T03:22:25.968Z,19.67
2022-10-26T03:25:10.856Z,19.13
2022-10-26T03:28:00.772Z,17.83
2022-10-26T03:30:45.682Z,21.77
2022-10-26T03:33:30.545Z,18.53
2022-10-26T03:36:15.967Z,20.97
2022-10-26T03:39:01.084Z,18.10
2022-10-26T03:41:46.133Z,19.83
2022-10-26T03:44:31.562Z,24.43
2022-10-26T03:47:17.541Z,20.03
2022-10-26T03:50:02.938Z,20.43
2022-10-26T03:52:49.540Z,20.40
2022-10-26T03:55:34.658Z,22.80
2022-10-26T03:58:20.569Z,23.90
2022-10-26T04:01:05.487Z,20.57
2022-10-26T04:03:50.928Z,21.83
2022-10-26T04:06:36.684Z,26.10
2022-10-26T04:09:23.294Z,22.57
2022-10-26T04:12:08.703Z,23.00
2022-10-26T04:14:53.830Z,23.37
2022-10-26T04:17:39.097Z,24.73
2022-10-26T04:20:25.456Z,25.13
2022-10-26T04:23:16.500Z,26.90
2022-10-26T04:26:01.508Z,24.70
2022-10-26T04:28:46.609Z,25.60
2022-10-26T04:31:32.195Z,25.87
2022-10-26T04:34:17.395Z,28.20
2022-10-26T04:37:02.289Z,24.97
2022-10-26T04:39:47.157Z,24.83
2022-10-26T04:42:32.035Z,26.33
2022-10-26T04:45:17.020Z,31.70
2022-10-26T04:48:11.372Z,30.37
2022-10-26T04:51:00.472Z,24.80
2022-10-26T04:53:45.271Z,26.00
2022-10-26T04:56:30.406Z,25.80
2022-10-26T04:59:15.742Z,26.73
2022-10-26T05:02:00.970Z,21.20
2022-10-26T05:04:46.435Z,30.73
2022-10-26T05:07:31.273Z,25.20
2022-10-26T05:10:16.400Z,25.27
2022-10-26T05:13:01.713Z,25.57
2022-10-26T05:15:46.798Z,25.43
2022-10-26T05:18:31.647Z,26.53
2022-10-26T05:21:17.479Z,30.80
2022-10-26T05:24:02.431Z,27.30
2022-10-26T05:26:47.645Z,30.93
2022-10-26T05:29:32.495Z,28.23
2022-10-26T05:32:17.216Z,25.77
2022-10-26T05:35:02.702Z,26.83
2022-10-26T05:37:47.675Z,27.43
2022-10-26T05:40:32.624Z,27.67
2022-10-26T05:43:18.749Z,24.67
2022-10-26T05:46:03.957Z,22.70
2022-10-26T05:48:49.134Z,25.77
2022-10-26T05:51:34.229Z,26.93
2022-10-26T05:54:19.440Z,28.77
2022-10-26T05:57:05.179Z,25.73
2022-10-26T05:59:50.211Z,30.00
2022-10-26T06:03:06.535Z,28.43
2022-10-26T06:06:00.703Z,23.47
2022-10-26T06:08:48.093Z,28.43
2022-10-26T06:11:33.159Z,30.00
2022-10-26T06:14:18.614Z,24.63
2022-10-26T06:17:21.845Z,28.80
2022-10-26T06:20:31.185Z,26.93
2022-10-26T06:23:43.994Z,26.27
2022-10-26T06:26:32.767Z,25.03
2022-10-26T06:29:55.464Z,28.40
2022-10-26T06:33:01.087Z,28.77
2022-10-26T06:36:18.214Z,26.70
2022-10-26T06:39:07.508Z,24.43
2022-10-26T06:41:52.496Z,28.17
2022-10-26T06:44:37.894Z,26.83
2022-10-26T06:47:48.004Z,24.95
2022-10-26T06:50:41.697Z,27.05
2022-10-26T06:53:43.844Z,25.20
2022-10-26T06:56:29.486Z,23.10
2022-10-26T06:59:37.578Z,23.75
2022-10-26T07:02:23.200Z,21.90
2022-10-26T07:05:08.421Z,24.97
2022-10-26T07:07:53.724Z,21.17
2022-10-26T07:10:39.313Z,21.77
2022-10-26T07:13:24.508Z,23.88
2022-10-26T07:16:09.947Z,22.25
2022-10-26T07:18:55.554Z,24.08
2022-10-26T07:21:40.464Z,21.83
2022-10-26T07:24:26.053Z,23.13
2022-10-26T07:27:11.351Z,23.17
2022-10-26T07:29:56.214Z,23.67
2022-10-26T07:32:41.460Z,23.15
2022-10-26T07:35:26.477Z,26.23
2022-10-26T07:38:12.686Z,23.83
2022-10-26T07:40:57.913Z,24.85
2022-10-26T07:43:42.790Z,21.25
2022-10-26T07:46:28.649Z,21.30
2022-10-26T07:49:16.269Z,23.75
2022-10-26T07:52:04.443Z,21.52
2022-10-26T07:54:49.642Z,18.70
2022-10-26T07:57:34.555Z,19.95
2022-10-26T08:00:19.860Z,20.85
2022-10-26T08:03:04.861Z,23.15
2022-10-26T08:05:50.071Z,19.98
2022-10-26T08:08:35.338Z,20.10
2022-10-26T08:11:20.392Z,20.33
2022-10-26T08:14:05.775Z,21.35
2022-10-26T08:16:50.788Z,19.25
2022-10-26T08:19:36.166Z,17.45
2022-10-26T08:22:21.408Z,16.67
2022-10-26T08:25:06.973Z,18.88
2022-10-26T08:27:52.522Z,16.45
2022-10-26T08:30:37.603Z,18.52
2022-10-26T08:33:23.340Z,17.60
2022-10-26T08:36:08.232Z,17.52
2022-10-26T08:38:53.803Z,18.15
2022-10-26T08:41:46.554Z,17.17
2022-10-26T08:44:51.249Z,16.52
2022-10-26T08:47:44.499Z,15.93
2022-10-26T08:50:42.063Z,19.60
2022-10-26T08:53:27.889Z,15.85
2022-10-26T08:56:21.879Z,20.35
2022-10-26T08:59:24.989Z,21.65
2022-10-26T09:02:14.193Z,14.85
2022-10-26T09:05:00.429Z,15.98
2022-10-26T09:07:45.666Z,18.83
2022-10-26T09:10:33.557Z,14.10
2022-10-26T09:13:42.288Z,13.93
2022-10-26T09:16:42.432Z,14.40
2022-10-26T09:19:45.552Z,15.73
2022-10-26T09:22:38.743Z,17.27
2022-10-26T09:25:29.517Z,14.30
2022-10-26T09:28:18.717Z,16.60
2022-10-26T09:31:04.851Z,14.00
2022-10-26T09:33:51.921Z,15.18
2022-10-26T09:36:36.982Z,15.55
2022-10-26T09:39:33.843Z,15.45
2022-10-26T09:42:43.224Z,12.63
2022-10-26T09:45:28.034Z,13.75
2022-10-26T09:48:22.673Z,12.98
2022-10-26T09:51:07.840Z,13.98
2022-10-26T09:53:56.140Z,9.18
2022-10-26T09:56:43.685Z,17.35
2022-10-26T09:59:33.684Z,12.40
2022-10-26T10:02:38.654Z,11.13
2022-10-26T10:05:45.798Z,11.43
2022-10-26T10:08:30.254Z,10.95
2022-10-26T10:11:15.594Z,12.55
2022-10-26T10:14:07.615Z,10.32
2022-10-26T10:16:57.719Z,11.80
2022-10-26T10:19:42.440Z,11.52
2022-10-26T10:22:28.332Z,10.50
2022-10-26T10:25:26.114Z,10.73
2022-10-26T10:31:22.606Z,15.48
2022-10-26T10:34:22.127Z,14.25
2022-10-26T10:37:15.117Z,11.25
2022-10-26T10:40:08.021Z,12.48
2022-10-26T10:43:03.038Z,10.52
2022-10-26T10:45:53.671Z,12.52
2022-10-26T10:48:47.367Z,8.50
2022-10-26T10:51:39.542Z,10.27
2022-10-26T10:54:39.113Z,12.68
2022-10-26T10:57:47.599Z,13.35
2022-10-26T11:00:37.023Z,8.98
2022-10-26T11:03:50.374Z,8.93
2022-10-26T11:06:40.981Z,13.13
2022-10-26T11:09:29.708Z,10.05
2022-10-26T11:12:37.623Z,9.57
2022-10-26T11:15:26.199Z,13.70
2022-10-26T11:18:33.912Z,13.95
2022-10-26T11:21:31.121Z,11.07
2022-10-26T11:24:29.838Z,12.40
2022-10-26T11:27:17.999Z,10.40
2022-10-26T11:30:19.601Z,12.68
2022-10-26T11:33:13.781Z,10.32
2022-10-26T11:36:05.009Z,12.50
2022-10-26T11:38:59.298Z,13.98
2022-10-26T11:41:56.245Z,14.30
2022-10-26T11:44:57.894Z,13.73
2022-10-26T11:47:52.681Z,8.30
2022-10-26T11:50:54.237Z,15.93
2022-10-26T11:53:43.965Z,14.32
2022-10-26T11:56:39.319Z,12.30
2022-10-26T11:59:33.296Z,11.90
2022-10-26T12:02:24.506Z,10.13
2022-10-26T12:05:15.454Z,10.93
2022-10-26T12:08:05.482Z,11.48
2022-10-26T12:11:05.278Z,10.57
2022-10-26T12:13:56.695Z,15.32
2022-10-26T12:17:11.525Z,8.38
2022-10-26T12:20:18.027Z,9.82
2022-10-26T12:23:05.106Z,16.92
2022-10-26T12:25:50.225Z,11.88
2022-10-26T12:28:35.394Z,13.73
2022-10-26T12:31:32.938Z,12.30
2022-10-26T12:34:30.675Z,10.95
2022-10-26T12:37:32.030Z,9.00
2022-10-26T12:40:43.382Z,12.63
2022-10-26T12:43:31.463Z,15.98
2022-10-26T12:46:16.888Z,12.20
2022-10-26T12:49:01.933Z,10.90
2022-10-26T12:51:46.716Z,10.57
2022-10-26T12:54:40.106Z,9.25
2022-10-26T12:57:46.248Z,13.23
2022-10-26T13:00:34.443Z,10.20
2022-10-26T13:03:34.433Z,9.93
2022-10-26T13:06:31.814Z,9.75
2022-10-26T13:09:37.408Z,11.98
2022-10-26T13:12:22.626Z,13.15
2022-10-26T13:15:24.480Z,12.55
2022-10-26T13:18:16.586Z,13.52
2022-10-26T13:21:09.437Z,14.55
2022-10-26T13:23:54.157Z,14.85
2022-10-26T13:27:07.140Z,18.63
2022-10-26T13:30:04.777Z,15.63
2022-10-26T13:32:55.792Z,13.65
2022-10-26T13:35:42.929Z,13.50
2022-10-26T13:38:33.765Z,12.15
2022-10-26T13:41:30.507Z,17.67
2022-10-26T13:44:39.065Z,11.00
2022-10-26T13:47:26.958Z,11.05
2022-10-26T13:50:17.050Z,12.38
2022-10-26T13:53:17.469Z,13.23
2022-10-26T13:56:17.375Z,11.32
2022-10-26T13:59:11.127Z,16.02
2022-10-26T14:02:26.630Z,12.80
2022-10-26T14:05:14.552Z,15.57
2022-10-26T14:07:59.983Z,17.00
2022-10-26T14:10:47.942Z,14.10
2022-10-26T14:13:34.195Z,16.88
2022-10-26T14:16:20.167Z,15.35
2022-10-26T14:19:05.488Z,10.68
2022-10-26T14:21:51.022Z,14.85
2022-10-26T14:24:47.009Z,15.00
2022-10-26T14:27:39.073Z,17.40
2022-10-26T14:30:31.812Z,13.77
2022-10-26T14:33:18.757Z,8.70
2022-10-26T14:36:04.671Z,13.30
2022-10-26T14:38:56.734Z,13.55
2022-10-26T14:41:42.673Z,14.30
2022-10-26T14:44:27.738Z,9.60
2022-10-26T14:47:32.559Z,10.57
2022-10-26T14:50:22.158Z,12.80
2022-10-26T14:53:16.716Z,13.50
2022-10-26T14:56:04.113Z,11.52
2022-10-26T14:58:49.815Z,11.77
2022-10-26T15:01:49.412Z,14.27
2022-10-26T15:04:36.089Z,12.02
2022-10-26T15:07:21.051Z,14.02
2022-10-26T15:10:06.096Z,14.30
2022-10-26T15:12:51.266Z,13.50
2022-10-26T15:15:39.584Z,10.73
2022-10-26T15:18:35.038Z,11.98
2022-10-26T15:21:27.028Z,12.85
2022-10-26T15:24:39.251Z,9.93
2022-10-26T15:27:25.134Z,14.25
2022-10-26T15:30:21.487Z,9.82
2022-10-26T15:33:19.877Z,11.80
2022-10-26T15:36:08.222Z,13.52
2022-10-26T15:38:53.665Z,10.73
2022-10-26T15:41:45.981Z,11.45
2022-10-26T15:44:30.790Z,14.63
2022-10-26T15:47:18.531Z,10.77
2022-10-26T15:50:04.191Z,12.02
2022-10-26T15:52:49.797Z,12.68
2022-10-26T15:55:35.889Z,14.55
2022-10-26T15:58:21.609Z,13.15
2022-10-26T16:01:06.662Z,14.18
2022-10-26T16:03:52.992Z,9.10
2022-10-26T16:06:39.897Z,11.05
2022-10-26T16:09:24.615Z,11.95
2022-10-26T16:12:13.569Z,14.52
2022-10-26T16:15:05.458Z,8.98
2022-10-26T16:17:51.947Z,15.13
2022-10-26T16:20:37.402Z,12.10
2022-10-26T16:23:22.996Z,16.08
2022-10-26T16:26:08.839Z,11.30
2022-10-26T16:28:53.690Z,12.15
2022-10-26T16:31:38.428Z,11.88
2022-10-26T16:34:23.240Z,14.63
2022-10-26T16:37:08.083Z,16.50
2022-10-26T16:39:52.924Z,13.35
2022-10-26T16:42:37.997Z,16.67
2022-10-26T16:45:23.026Z,17.23
2022-10-26T16:48:09.222Z,16.65
2022-10-26T16:50:54.115Z,16.30
2022-10-26T16:53:40.436Z,20.25
2022-10-26T16:56:29.731Z,16.08
2022-10-26T16:59:14.747Z,15.50
2022-10-26T17:01:59.818Z,15.63
2022-10-26T17:04:44.855Z,13.70
2022-10-26T17:07:29.611Z,13.25
2022-10-26T17:10:14.603Z,15.02
2022-10-26T17:12:59.443Z,15.10
2022-10-26T17:15:45.416Z,12.50
2022-10-26T17:18:30.616Z,17.30
2022-10-26T17:21:17.736Z,19.63
2022-10-26T17:24:03.309Z,13.73
2022-10-26T17:26:48.647Z,13.35
2022-10-26T17:29:33.357Z,13.20
2022-10-26T17:32:18.147Z,18.08
2022-10-26T17:35:03.972Z,18.98
2022-10-26T17:37:49.565Z,29.08
2022-10-26T17:40:34.588Z,41.38
2022-10-26T17:43:19.573Z,14.95
2022-10-26T17:46:07.499Z,15.85
2022-10-26T17:48:57.273Z,16.05
2022-10-26T17:51:42.416Z,17.75
2022-10-26T17:54:27.224Z,19.10
2022-10-26T17:57:11.988Z,20.63
2022-10-26T17:59:56.953Z,22.17
2022-10-26T18:02:41.979Z,18.42
2022-10-26T18:05:27.368Z,14.45
2022-10-26T18:08:12.419Z,18.70
2022-10-26T18:10:57.334Z,17.27
2022-10-26T18:13:42.660Z,18.75
2022-10-26T18:16:28.035Z,19.90
2022-10-26T18:19:13.266Z,16.90
2022-10-26T18:21:58.481Z,16.90
2022-10-26T18:24:43.325Z,16.40
2022-10-26T18:27:28.540Z,22.95
2022-10-26T18:30:13.842Z,16.52
2022-10-26T18:32:58.890Z,20.42
2022-10-26T18:35:43.851Z,30.67
2022-10-26T18:38:29.444Z,22.55
2022-10-26T18:41:16.454Z,17.77
2022-10-26T18:44:01.430Z,19.27
2022-10-26T18:46:46.669Z,20.90
2022-10-26T18:49:31.465Z,17.75
2022-10-26T18:52:16.871Z,13.65
2022-10-26T18:55:01.765Z,19.85
2022-10-26T18:57:46.718Z,16.17
2022-10-26T19:00:31.686Z,19.65
2022-10-26T19:03:17.140Z,18.65
2022-10-26T19:06:12.729Z,19.52
2022-10-26T19:08:58.113Z,17.67
2022-10-26T19:11:43.159Z,17.88
2022-10-26T19:14:28.364Z,19.70
2022-10-26T19:17:13.230Z,21.00
2022-10-26T19:19:58.157Z,17.17
2022-10-26T19:22:43.453Z,15.77
2022-10-26T19:25:28.454Z,19.20
2022-10-26T19:28:13.339Z,16.98
2022-10-26T19:30:58.646Z,25.70
2022-10-26T19:33:43.546Z,22.55
2022-10-26T19:36:29.588Z,17.52
2022-10-26T19:39:16.434Z,18.85
2022-10-26T19:42:01.586Z,23.70
2022-10-26T19:44:46.362Z,24.85
2022-10-26T19:47:31.828Z,18.30
2022-10-26T19:50:17.154Z,20.77
2022-10-26T19:53:02.184Z,23.00
2022-10-26T19:55:48.329Z,22.60
2022-10-26T19:58:33.426Z,20.95
2022-10-26T20:01:18.597Z,19.25
2022-10-26T20:04:04.255Z,18.73
2022-10-26T20:06:49.380Z,19.00
2022-10-26T20:09:34.509Z,18.17
2022-10-26T20:12:19.978Z,21.15
2022-10-26T20:15:05.111Z,19.90
2022-10-26T20:17:50.270Z,23.40
2022-10-26T20:20:35.549Z,17.63
2022-10-26T20:23:20.418Z,20.88
2022-10-26T20:28:56.285Z,19.90
2022-10-26T20:31:41.625Z,19.10
2022-10-26T20:37:14.619Z,21.17
2022-10-26T20:39:59.919Z,22.13
2022-10-26T20:42:45.463Z,22.10
2022-10-26T20:45:31.934Z,21.02
2022-10-26T20:48:17.567Z,21.80
2022-10-26T20:51:06.012Z,17.17
2022-10-26T20:54:01.467Z,20.10
2022-10-26T20:56:48.651Z,19.42
2022-10-26T20:59:56.413Z,22.30
2022-10-26T21:02:41.444Z,19.92
2022-10-26T21:05:26.398Z,21.30
2022-10-26T21:08:11.591Z,24.83
2022-10-26T21:10:56.863Z,21.92
2022-10-26T21:13:43.712Z,18.00
2022-10-26T21:16:28.613Z,14.13
2022-10-26T21:19:13.912Z,25.08
2022-10-26T21:21:58.683Z,20.23
2022-10-26T21:24:43.628Z,19.25
2022-10-26T21:27:28.446Z,22.38
2022-10-26T21:30:13.751Z,20.38
2022-10-26T21:32:58.701Z,23.65
2022-10-26T21:35:52.203Z,16.75
2022-10-26T21:38:37.699Z,23.65
2022-10-26T21:41:22.503Z,21.42
2022-10-26T21:44:14.989Z,19.77
2022-10-26T21:47:11.980Z,19.45
2022-10-26T21:49:56.981Z,17.08
2022-10-26T21:52:41.919Z,21.63
2022-10-26T21:55:26.750Z,18.48
2022-10-26T21:58:11.923Z,20.35
2022-10-26T22:01:12.003Z,17.70
2022-10-26T22:03:57.004Z,22.02
2022-10-26T22:06:42.064Z,18.38
2022-10-26T22:09:27.161Z,24.20
2022-10-26T22:12:12.102Z,20.77
2022-10-26T22:14:57.088Z,18.73
2022-10-26T22:17:42.785Z,20.33
2022-10-26T22:20:27.672Z,21.65
2022-10-26T22:23:12.679Z,23.80
2022-10-26T22:26:01.646Z,21.45
2022-10-26T22:28:48.233Z,20.73
2022-10-26T22:31:37.079Z,20.48
2022-10-26T22:34:21.909Z,20.50
2022-10-26T22:37:06.802Z,20.73
2022-10-26T22:39:51.818Z,19.88
2022-10-26T22:42:36.545Z,19.08
2022-10-26T22:45:21.530Z,23.35
2022-10-26T22:50:51.378Z,21.77
2022-10-26T22:53:36.757Z,21.52
2022-10-26T22:56:23.522Z,24.17
2022-10-26T22:59:08.541Z,26.17
2022-10-26T23:01:53.408Z,27.92
2022-10-26T23:04:38.670Z,23.08
2022-10-26T23:07:23.858Z,22.23
2022-10-26T23:10:09.404Z,26.70
2022-10-26T23:12:54.836Z,22.55
2022-10-26T23:15:40.173Z,20.15
2022-10-26T23:18:25.547Z,22.70
2022-10-26T23:21:12.363Z,19.83
2022-10-26T23:23:57.611Z,27.58
2022-10-26T23:26:42.912Z,24.00
2022-10-26T23:29:27.810Z,24.80
2022-10-26T23:32:12.720Z,28.58
2022-10-26T23:34:57.518Z,24.55
2022-10-26T23:37:42.729Z,22.35
2022-10-26T23:40:27.904Z,25.80
2022-10-26T23:43:12.858Z,25.45
2022-10-26T23:45:57.689Z,23.52
2022-10-26T23:48:43.047Z,20.85
2022-10-26T23:51:27.951Z,23.08
2022-10-26T23:54:12.910Z,25.35
2022-10-26T23:56:58.157Z,23.85
2022-10-26T23:59:42.911Z,19.02
